sensor_id;sensor_type;location;lat;lon;timestamp;P1;durP1;ratioP1;P2;durP2;ratioP2
69310;SDS011;56430;48.154;16.458;2023-07-29T00:01:57;4.25;;;0.68;;
69310;SDS011;56430;48.154;16.458;2023-07-29T00:04:24;3.20;;;0.90;;
69310;SDS011;56430;48.154;16.458;2023-07-29T00:06:52;2.33;;;0.73;;
69310;SDS011;56430;48.154;16.458;2023-07-29T00:09:19;2.37;;;0.70;;
69310;SDS011;56430;48.154;16.458;2023-07-29T00:11:46;2.75;;;0.73;;
69310;SDS011;56430;48.154;16.458;2023-07-29T00:14:12;2.40;;;0.80;;
69310;SDS011;56430;48.154;16.458;2023-07-29T00:16:39;2.25;;;0.80;;
69310;SDS011;56430;48.154;16.458;2023-07-29T00:19:06;4.47;;;0.80;;
69310;SDS011;56430;48.154;16.458;2023-07-29T00:21:33;2.50;;;0.70;;
69310;SDS011;56430;48.154;16.458;2023-07-29T00:24:02;3.25;;;1.00;;
69310;SDS011;56430;48.154;16.458;2023-07-29T00:26:29;2.50;;;0.70;;
69310;SDS011;56430;48.154;16.458;2023-07-29T00:28:56;2.50;;;0.73;;
69310;SDS011;56430;48.154;16.458;2023-07-29T00:31:22;1.80;;;0.57;;
69310;SDS011;56430;48.154;16.458;2023-07-29T00:33:49;2.93;;;0.80;;
69310;SDS011;56430;48.154;16.458;2023-07-29T00:36:18;2.25;;;0.70;;
69310;SDS011;56430;48.154;16.458;2023-07-29T00:38:45;2.55;;;0.75;;
69310;SDS011;56430;48.154;16.458;2023-07-29T00:41:13;2.22;;;0.70;;
69310;SDS011;56430;48.154;16.458;2023-07-29T00:43:40;2.40;;;0.75;;
69310;SDS011;56430;48.154;16.458;2023-07-29T00:46:08;3.83;;;0.87;;
69310;SDS011;56430;48.154;16.458;2023-07-29T00:48:35;3.80;;;0.90;;
69310;SDS011;56430;48.154;16.458;2023-07-29T00:51:02;2.15;;;0.80;;
69310;SDS011;56430;48.154;16.458;2023-07-29T00:53:29;2.67;;;0.82;;
69310;SDS011;56430;48.154;16.458;2023-07-29T00:55:56;2.13;;;0.63;;
69310;SDS011;56430;48.154;16.458;2023-07-29T00:58:24;3.10;;;0.70;;
69310;SDS011;56430;48.154;16.458;2023-07-29T01:00:51;3.03;;;0.82;;
69310;SDS011;56430;48.154;16.458;2023-07-29T01:03:19;2.70;;;0.90;;
69310;SDS011;56430;48.154;16.458;2023-07-29T01:05:48;2.35;;;0.80;;
69310;SDS011;56430;48.154;16.458;2023-07-29T01:08:18;2.58;;;0.80;;
69310;SDS011;56430;48.154;16.458;2023-07-29T01:10:51;2.97;;;1.00;;
69310;SDS011;56430;48.154;16.458;2023-07-29T01:13:24;2.45;;;0.85;;
69310;SDS011;56430;48.154;16.458;2023-07-29T01:15:54;2.92;;;0.90;;
69310;SDS011;56430;48.154;16.458;2023-07-29T01:18:23;3.65;;;0.90;;
69310;SDS011;56430;48.154;16.458;2023-07-29T01:20:50;2.53;;;1.00;;
69310;SDS011;56430;48.154;16.458;2023-07-29T01:23:24;2.50;;;0.80;;
69310;SDS011;56430;48.154;16.458;2023-07-29T01:25:50;2.40;;;0.77;;
69310;SDS011;56430;48.154;16.458;2023-07-29T01:31:13;2.53;;;0.77;;
69310;SDS011;56430;48.154;16.458;2023-07-29T01:33:42;3.13;;;0.77;;
69310;SDS011;56430;48.154;16.458;2023-07-29T01:36:11;2.38;;;0.80;;
69310;SDS011;56430;48.154;16.458;2023-07-29T01:38:41;2.17;;;0.93;;
69310;SDS011;56430;48.154;16.458;2023-07-29T01:41:08;2.67;;;0.90;;
69310;SDS011;56430;48.154;16.458;2023-07-29T01:43:36;2.47;;;0.90;;
69310;SDS011;56430;48.154;16.458;2023-07-29T01:46:08;2.22;;;0.70;;
69310;SDS011;56430;48.154;16.458;2023-07-29T01:48:35;2.63;;;0.95;;
69310;SDS011;56430;48.154;16.458;2023-07-29T01:51:02;3.37;;;0.87;;
69310;SDS011;56430;48.154;16.458;2023-07-29T01:53:29;2.75;;;0.75;;
69310;SDS011;56430;48.154;16.458;2023-07-29T01:55:57;2.40;;;0.88;;
69310;SDS011;56430;48.154;16.458;2023-07-29T01:58:24;2.70;;;0.95;;
69310;SDS011;56430;48.154;16.458;2023-07-29T02:00:51;4.05;;;1.25;;
69310;SDS011;56430;48.154;16.458;2023-07-29T02:03:18;2.50;;;0.83;;
69310;SDS011;56430;48.154;16.458;2023-07-29T02:05:44;4.00;;;0.90;;
69310;SDS011;56430;48.154;16.458;2023-07-29T02:08:11;2.95;;;0.90;;
69310;SDS011;56430;48.154;16.458;2023-07-29T02:10:39;2.63;;;0.95;;
69310;SDS011;56430;48.154;16.458;2023-07-29T02:13:07;2.55;;;0.85;;
69310;SDS011;56430;48.154;16.458;2023-07-29T02:15:34;2.97;;;1.13;;
69310;SDS011;56430;48.154;16.458;2023-07-29T02:18:01;3.58;;;0.90;;
69310;SDS011;56430;48.154;16.458;2023-07-29T02:20:29;2.42;;;0.80;;
69310;SDS011;56430;48.154;16.458;2023-07-29T02:22:55;4.03;;;0.80;;
69310;SDS011;56430;48.154;16.458;2023-07-29T02:25:22;2.33;;;0.63;;
69310;SDS011;56430;48.154;16.458;2023-07-29T02:27:49;2.60;;;0.80;;
69310;SDS011;56430;48.154;16.458;2023-07-29T02:30:17;2.53;;;0.80;;
69310;SDS011;56430;48.154;16.458;2023-07-29T02:32:44;2.53;;;0.80;;
69310;SDS011;56430;48.154;16.458;2023-07-29T02:35:11;2.50;;;0.70;;
69310;SDS011;56430;48.154;16.458;2023-07-29T02:37:38;2.33;;;0.80;;
69310;SDS011;56430;48.154;16.458;2023-07-29T02:40:05;1.90;;;0.60;;
69310;SDS011;56430;48.154;16.458;2023-07-29T02:42:32;2.20;;;0.70;;
69310;SDS011;56430;48.154;16.458;2023-07-29T02:44:59;2.40;;;0.73;;
69310;SDS011;56430;48.154;16.458;2023-07-29T02:47:27;2.15;;;0.65;;
69310;SDS011;56430;48.154;16.458;2023-07-29T02:49:55;2.88;;;0.80;;
69310;SDS011;56430;48.154;16.458;2023-07-29T02:52:21;2.60;;;0.67;;
69310;SDS011;56430;48.154;16.458;2023-07-29T02:54:48;2.38;;;0.55;;
69310;SDS011;56430;48.154;16.458;2023-07-29T02:57:15;1.80;;;0.55;;
69310;SDS011;56430;48.154;16.458;2023-07-29T02:59:42;2.35;;;0.52;;
69310;SDS011;56430;48.154;16.458;2023-07-29T03:02:09;2.60;;;0.70;;
69310;SDS011;56430;48.154;16.458;2023-07-29T03:04:38;3.07;;;0.70;;
69310;SDS011;56430;48.154;16.458;2023-07-29T03:07:05;2.10;;;0.47;;
69310;SDS011;56430;48.154;16.458;2023-07-29T03:09:31;2.45;;;0.52;;
69310;SDS011;56430;48.154;16.458;2023-07-29T03:11:59;2.03;;;0.50;;
69310;SDS011;56430;48.154;16.458;2023-07-29T03:14:26;3.35;;;0.60;;
69310;SDS011;56430;48.154;16.458;2023-07-29T03:16:53;3.03;;;0.30;;
69310;SDS011;56430;48.154;16.458;2023-07-29T03:19:20;1.70;;;0.40;;
69310;SDS011;56430;48.154;16.458;2023-07-29T03:21:48;2.10;;;0.52;;
69310;SDS011;56430;48.154;16.458;2023-07-29T03:24:15;2.28;;;0.57;;
69310;SDS011;56430;48.154;16.458;2023-07-29T03:26:42;2.00;;;0.50;;
69310;SDS011;56430;48.154;16.458;2023-07-29T03:29:09;1.67;;;0.40;;
69310;SDS011;56430;48.154;16.458;2023-07-29T03:31:36;2.97;;;0.50;;
69310;SDS011;56430;48.154;16.458;2023-07-29T03:34:03;2.20;;;0.50;;
69310;SDS011;56430;48.154;16.458;2023-07-29T03:36:30;2.13;;;0.50;;
69310;SDS011;56430;48.154;16.458;2023-07-29T03:38:58;1.98;;;0.50;;
69310;SDS011;56430;48.154;16.458;2023-07-29T03:41:26;2.08;;;0.43;;
69310;SDS011;56430;48.154;16.458;2023-07-29T03:43:52;2.07;;;0.50;;
69310;SDS011;56430;48.154;16.458;2023-07-29T03:46:19;2.25;;;0.40;;
69310;SDS011;56430;48.154;16.458;2023-07-29T03:48:47;1.67;;;0.38;;
69310;SDS011;56430;48.154;16.458;2023-07-29T03:51:14;2.05;;;0.40;;
69310;SDS011;56430;48.154;16.458;2023-07-29T03:53:41;2.45;;;0.70;;
69310;SDS011;56430;48.154;16.458;2023-07-29T03:56:09;2.20;;;0.47;;
69310;SDS011;56430;48.154;16.458;2023-07-29T03:58:36;1.75;;;0.40;;
69310;SDS011;56430;48.154;16.458;2023-07-29T04:01:03;2.42;;;0.60;;
69310;SDS011;56430;48.154;16.458;2023-07-29T04:03:30;2.05;;;0.40;;
69310;SDS011;56430;48.154;16.458;2023-07-29T04:05:57;1.58;;;0.40;;
69310;SDS011;56430;48.154;16.458;2023-07-29T04:08:24;1.80;;;0.40;;
69310;SDS011;56430;48.154;16.458;2023-07-29T04:10:51;2.13;;;0.60;;
69310;SDS011;56430;48.154;16.458;2023-07-29T04:13:19;2.47;;;0.40;;
69310;SDS011;56430;48.154;16.458;2023-07-29T04:15:46;1.90;;;0.40;;
69310;SDS011;56430;48.154;16.458;2023-07-29T04:18:13;1.60;;;0.40;;
69310;SDS011;56430;48.154;16.458;2023-07-29T04:20:39;2.27;;;0.43;;
69310;SDS011;56430;48.154;16.458;2023-07-29T04:23:06;1.90;;;0.40;;
69310;SDS011;56430;48.154;16.458;2023-07-29T04:25:33;1.88;;;0.40;;
69310;SDS011;56430;48.154;16.458;2023-07-29T04:28:00;2.25;;;0.40;;
69310;SDS011;56430;48.154;16.458;2023-07-29T04:30:30;1.90;;;0.40;;
69310;SDS011;56430;48.154;16.458;2023-07-29T04:32:57;1.80;;;0.40;;
69310;SDS011;56430;48.154;16.458;2023-07-29T04:35:23;2.35;;;0.60;;
69310;SDS011;56430;48.154;16.458;2023-07-29T04:37:50;2.38;;;0.57;;
69310;SDS011;56430;48.154;16.458;2023-07-29T04:40:17;2.58;;;0.55;;
69310;SDS011;56430;48.154;16.458;2023-07-29T04:42:44;3.22;;;0.60;;
69310;SDS011;56430;48.154;16.458;2023-07-29T04:45:11;1.83;;;0.40;;
69310;SDS011;56430;48.154;16.458;2023-07-29T04:47:39;2.13;;;0.47;;
69310;SDS011;56430;48.154;16.458;2023-07-29T04:50:06;4.15;;;0.40;;
69310;SDS011;56430;48.154;16.458;2023-07-29T04:52:33;2.25;;;0.40;;
69310;SDS011;56430;48.154;16.458;2023-07-29T04:55:00;2.35;;;0.40;;
69310;SDS011;56430;48.154;16.458;2023-07-29T04:57:27;2.10;;;0.60;;
69310;SDS011;56430;48.154;16.458;2023-07-29T04:59:54;2.30;;;0.60;;
69310;SDS011;56430;48.154;16.458;2023-07-29T05:02:21;2.05;;;0.40;;
69310;SDS011;56430;48.154;16.458;2023-07-29T05:04:49;2.15;;;0.50;;
69310;SDS011;56430;48.154;16.458;2023-07-29T05:07:16;1.98;;;0.50;;
69310;SDS011;56430;48.154;16.458;2023-07-29T05:09:43;2.53;;;0.50;;
69310;SDS011;56430;48.154;16.458;2023-07-29T05:12:10;1.90;;;0.40;;
69310;SDS011;56430;48.154;16.458;2023-07-29T05:14:36;2.58;;;0.60;;
69310;SDS011;56430;48.154;16.458;2023-07-29T05:17:03;1.73;;;0.32;;
69310;SDS011;56430;48.154;16.458;2023-07-29T05:19:30;2.20;;;0.40;;
69310;SDS011;56430;48.154;16.458;2023-07-29T05:21:59;3.03;;;0.47;;
69310;SDS011;56430;48.154;16.458;2023-07-29T05:24:25;1.90;;;0.40;;
69310;SDS011;56430;48.154;16.458;2023-07-29T05:26:52;2.17;;;0.50;;
69310;SDS011;56430;48.154;16.458;2023-07-29T05:29:19;2.30;;;0.50;;
69310;SDS011;56430;48.154;16.458;2023-07-29T05:31:46;2.28;;;0.35;;
69310;SDS011;56430;48.154;16.458;2023-07-29T05:34:13;2.07;;;0.60;;
69310;SDS011;56430;48.154;16.458;2023-07-29T05:36:39;1.90;;;0.40;;
69310;SDS011;56430;48.154;16.458;2023-07-29T05:39:08;1.95;;;0.40;;
69310;SDS011;56430;48.154;16.458;2023-07-29T05:41:34;2.00;;;0.30;;
69310;SDS011;56430;48.154;16.458;2023-07-29T05:44:02;2.38;;;0.50;;
69310;SDS011;56430;48.154;16.458;2023-07-29T05:46:28;1.60;;;0.40;;
69310;SDS011;56430;48.154;16.458;2023-07-29T05:48:55;1.80;;;0.37;;
69310;SDS011;56430;48.154;16.458;2023-07-29T05:51:22;2.35;;;0.63;;
69310;SDS011;56430;48.154;16.458;2023-07-29T05:53:49;3.03;;;0.40;;
69310;SDS011;56430;48.154;16.458;2023-07-29T05:56:17;1.65;;;0.40;;
69310;SDS011;56430;48.154;16.458;2023-07-29T05:58:44;2.03;;;0.43;;
69310;SDS011;56430;48.154;16.458;2023-07-29T06:01:10;1.87;;;0.50;;
69310;SDS011;56430;48.154;16.458;2023-07-29T06:03:37;1.67;;;0.40;;
69310;SDS011;56430;48.154;16.458;2023-07-29T06:06:04;1.90;;;0.40;;
69310;SDS011;56430;48.154;16.458;2023-07-29T06:08:31;2.13;;;0.50;;
69310;SDS011;56430;48.154;16.458;2023-07-29T06:10:59;2.10;;;0.60;;
69310;SDS011;56430;48.154;16.458;2023-07-29T06:13:28;1.80;;;0.40;;
69310;SDS011;56430;48.154;16.458;2023-07-29T06:15:54;1.90;;;0.45;;
69310;SDS011;56430;48.154;16.458;2023-07-29T06:18:21;2.60;;;0.40;;
69310;SDS011;56430;48.154;16.458;2023-07-29T06:20:48;1.70;;;0.40;;
69310;SDS011;56430;48.154;16.458;2023-07-29T06:23:15;1.92;;;0.40;;
69310;SDS011;56430;48.154;16.458;2023-07-29T06:28:46;2.10;;;0.40;;
69310;SDS011;56430;48.154;16.458;2023-07-29T06:31:13;1.60;;;0.30;;
69310;SDS011;56430;48.154;16.458;2023-07-29T06:33:40;1.67;;;0.32;;
69310;SDS011;56430;48.154;16.458;2023-07-29T06:36:07;1.67;;;0.40;;
69310;SDS011;56430;48.154;16.458;2023-07-29T06:38:34;1.55;;;0.40;;
69310;SDS011;56430;48.154;16.458;2023-07-29T06:41:00;2.90;;;0.50;;
69310;SDS011;56430;48.154;16.458;2023-07-29T06:43:27;1.70;;;0.30;;
69310;SDS011;56430;48.154;16.458;2023-07-29T06:45:55;1.60;;;0.30;;
69310;SDS011;56430;48.154;16.458;2023-07-29T06:48:22;1.50;;;0.32;;
69310;SDS011;56430;48.154;16.458;2023-07-29T06:50:49;2.35;;;0.60;;
69310;SDS011;56430;48.154;16.458;2023-07-29T06:53:16;1.80;;;0.30;;
69310;SDS011;56430;48.154;16.458;2023-07-29T06:55:43;2.45;;;0.30;;
69310;SDS011;56430;48.154;16.458;2023-07-29T06:58:10;1.50;;;0.30;;
69310;SDS011;56430;48.154;16.458;2023-07-29T07:00:37;1.83;;;0.40;;
69310;SDS011;56430;48.154;16.458;2023-07-29T07:03:05;1.73;;;0.30;;
69310;SDS011;56430;48.154;16.458;2023-07-29T07:05:32;1.67;;;0.40;;
69310;SDS011;56430;48.154;16.458;2023-07-29T07:07:59;1.58;;;0.30;;
69310;SDS011;56430;48.154;16.458;2023-07-29T07:10:26;1.85;;;0.40;;
69310;SDS011;56430;48.154;16.458;2023-07-29T07:12:52;1.60;;;0.40;;
69310;SDS011;56430;48.154;16.458;2023-07-29T07:15:19;2.27;;;0.47;;
69310;SDS011;56430;48.154;16.458;2023-07-29T07:17:46;1.30;;;0.30;;
69310;SDS011;56430;48.154;16.458;2023-07-29T07:20:14;1.50;;;0.40;;
69310;SDS011;56430;48.154;16.458;2023-07-29T07:22:41;2.03;;;0.40;;
69310;SDS011;56430;48.154;16.458;2023-07-29T07:25:08;2.08;;;0.40;;
69310;SDS011;56430;48.154;16.458;2023-07-29T07:27:35;1.80;;;0.40;;
69310;SDS011;56430;48.154;16.458;2023-07-29T07:30:02;1.80;;;0.45;;
69310;SDS011;56430;48.154;16.458;2023-07-29T07:32:29;1.80;;;0.50;;
69310;SDS011;56430;48.154;16.458;2023-07-29T07:34:55;3.10;;;0.50;;
69310;SDS011;56430;48.154;16.458;2023-07-29T07:37:23;1.98;;;0.47;;
69310;SDS011;56430;48.154;16.458;2023-07-29T07:39:51;2.17;;;0.60;;
69310;SDS011;56430;48.154;16.458;2023-07-29T07:42:17;1.63;;;0.40;;
69310;SDS011;56430;48.154;16.458;2023-07-29T07:44:44;1.70;;;0.50;;
69310;SDS011;56430;48.154;16.458;2023-07-29T07:47:11;1.90;;;0.40;;
69310;SDS011;56430;48.154;16.458;2023-07-29T07:49:38;4.03;;;1.23;;
69310;SDS011;56430;48.154;16.458;2023-07-29T07:52:05;1.95;;;0.60;;
69310;SDS011;56430;48.154;16.458;2023-07-29T07:54:33;1.70;;;0.40;;
69310;SDS011;56430;48.154;16.458;2023-07-29T07:57:00;1.80;;;0.70;;
69310;SDS011;56430;48.154;16.458;2023-07-29T07:59:27;2.30;;;0.50;;
69310;SDS011;56430;48.154;16.458;2023-07-29T08:01:53;1.70;;;0.50;;
69310;SDS011;56430;48.154;16.458;2023-07-29T08:04:20;1.75;;;0.50;;
69310;SDS011;56430;48.154;16.458;2023-07-29T08:06:47;2.17;;;0.70;;
69310;SDS011;56430;48.154;16.458;2023-07-29T08:09:14;1.55;;;0.40;;
69310;SDS011;56430;48.154;16.458;2023-07-29T08:11:42;2.10;;;0.60;;
69310;SDS011;56430;48.154;16.458;2023-07-29T08:14:09;1.95;;;0.90;;
69310;SDS011;56430;48.154;16.458;2023-07-29T08:16:36;1.70;;;0.80;;
69310;SDS011;56430;48.154;16.458;2023-07-29T08:19:03;1.77;;;0.80;;
69310;SDS011;56430;48.154;16.458;2023-07-29T08:21:30;1.70;;;0.83;;
69310;SDS011;56430;48.154;16.458;2023-07-29T08:23:56;2.03;;;1.07;;
69310;SDS011;56430;48.154;16.458;2023-07-29T08:26:23;2.10;;;0.90;;
69310;SDS011;56430;48.154;16.458;2023-07-29T08:28:51;1.80;;;1.02;;
69310;SDS011;56430;48.154;16.458;2023-07-29T08:31:18;2.03;;;1.25;;
69310;SDS011;56430;48.154;16.458;2023-07-29T08:33:45;2.13;;;1.52;;
69310;SDS011;56430;48.154;16.458;2023-07-29T08:36:12;1.77;;;1.20;;
69310;SDS011;56430;48.154;16.458;2023-07-29T08:38:39;2.05;;;1.20;;
69310;SDS011;56430;48.154;16.458;2023-07-29T08:41:07;1.90;;;1.30;;
69310;SDS011;56430;48.154;16.458;2023-07-29T08:43:36;2.38;;;1.52;;
69310;SDS011;56430;48.154;16.458;2023-07-29T08:46:06;2.20;;;1.70;;
69310;SDS011;56430;48.154;16.458;2023-07-29T08:48:35;2.13;;;1.90;;
69310;SDS011;56430;48.154;16.458;2023-07-29T08:51:03;2.60;;;1.60;;
69310;SDS011;56430;48.154;16.458;2023-07-29T08:53:30;2.50;;;1.83;;
69310;SDS011;56430;48.154;16.458;2023-07-29T08:55:57;2.20;;;1.80;;
69310;SDS011;56430;48.154;16.458;2023-07-29T08:58:24;2.58;;;2.38;;
69310;SDS011;56430;48.154;16.458;2023-07-29T09:00:51;2.45;;;2.22;;
69310;SDS011;56430;48.154;16.458;2023-07-29T09:03:20;2.22;;;2.03;;
69310;SDS011;56430;48.154;16.458;2023-07-29T09:05:47;2.70;;;2.50;;
69310;SDS011;56430;48.154;16.458;2023-07-29T09:08:14;2.80;;;2.22;;
69310;SDS011;56430;48.154;16.458;2023-07-29T09:10:41;2.57;;;2.33;;
69310;SDS011;56430;48.154;16.458;2023-07-29T09:13:08;2.57;;;2.33;;
69310;SDS011;56430;48.154;16.458;2023-07-29T09:15:35;3.10;;;2.85;;
69310;SDS011;56430;48.154;16.458;2023-07-29T09:18:08;3.00;;;2.80;;
69310;SDS011;56430;48.154;16.458;2023-07-29T09:20:37;3.25;;;3.00;;
69310;SDS011;56430;48.154;16.458;2023-07-29T09:23:06;4.03;;;3.72;;
69310;SDS011;56430;48.154;16.458;2023-07-29T09:25:33;3.10;;;2.80;;
69310;SDS011;56430;48.154;16.458;2023-07-29T09:28:00;3.30;;;3.00;;
69310;SDS011;56430;48.154;16.458;2023-07-29T09:30:27;4.20;;;3.80;;
69310;SDS011;56430;48.154;16.458;2023-07-29T09:32:54;3.65;;;3.35;;
69310;SDS011;56430;48.154;16.458;2023-07-29T09:35:21;3.30;;;3.00;;
69310;SDS011;56430;48.154;16.458;2023-07-29T09:37:50;3.67;;;3.37;;
69310;SDS011;56430;48.154;16.458;2023-07-29T09:40:17;3.72;;;3.42;;
69310;SDS011;56430;48.154;16.458;2023-07-29T09:42:47;3.90;;;3.60;;
69310;SDS011;56430;48.154;16.458;2023-07-29T09:45:18;4.60;;;3.75;;
69310;SDS011;56430;48.154;16.458;2023-07-29T09:47:45;4.60;;;4.03;;
69310;SDS011;56430;48.154;16.458;2023-07-29T09:50:12;3.78;;;3.47;;
69310;SDS011;56430;48.154;16.458;2023-07-29T09:52:39;4.28;;;3.97;;
69310;SDS011;56430;48.154;16.458;2023-07-29T09:55:08;4.32;;;4.03;;
69310;SDS011;56430;48.154;16.458;2023-07-29T09:57:36;4.30;;;4.00;;
69310;SDS011;56430;48.154;16.458;2023-07-29T10:00:04;4.30;;;4.00;;
69310;SDS011;56430;48.154;16.458;2023-07-29T10:02:36;4.03;;;3.73;;
69310;SDS011;56430;48.154;16.458;2023-07-29T10:05:04;4.63;;;4.30;;
69310;SDS011;56430;48.154;16.458;2023-07-29T10:07:31;5.43;;;5.03;;
69310;SDS011;56430;48.154;16.458;2023-07-29T10:09:58;4.55;;;4.25;;
69310;SDS011;56430;48.154;16.458;2023-07-29T10:12:27;4.50;;;4.10;;
69310;SDS011;56430;48.154;16.458;2023-07-29T10:14:53;4.75;;;4.43;;
69310;SDS011;56430;48.154;16.458;2023-07-29T10:17:21;4.47;;;4.10;;
69310;SDS011;56430;48.154;16.458;2023-07-29T10:19:48;4.50;;;4.20;;
69310;SDS011;56430;48.154;16.458;2023-07-29T10:22:15;4.50;;;4.10;;
69310;SDS011;56430;48.154;16.458;2023-07-29T10:24:44;4.17;;;3.87;;
69310;SDS011;56430;48.154;16.458;2023-07-29T10:27:11;4.47;;;4.17;;
69310;SDS011;56430;48.154;16.458;2023-07-29T10:29:42;4.28;;;3.97;;
69310;SDS011;56430;48.154;16.458;2023-07-29T10:32:10;4.10;;;3.78;;
69310;SDS011;56430;48.154;16.458;2023-07-29T10:34:37;3.53;;;3.22;;
69310;SDS011;56430;48.154;16.458;2023-07-29T10:37:06;3.72;;;2.63;;
69310;SDS011;56430;48.154;16.458;2023-07-29T10:39:37;2.80;;;2.60;;
69310;SDS011;56430;48.154;16.458;2023-07-29T10:42:05;3.72;;;2.70;;
69310;SDS011;56430;48.154;16.458;2023-07-29T10:44:52;2.92;;;2.10;;
69310;SDS011;56430;48.154;16.458;2023-07-29T10:47:20;2.90;;;2.35;;
69310;SDS011;56430;48.154;16.458;2023-07-29T10:49:48;5.03;;;2.60;;
69310;SDS011;56430;48.154;16.458;2023-07-29T10:52:16;2.67;;;2.33;;
69310;SDS011;56430;48.154;16.458;2023-07-29T10:54:43;2.60;;;2.20;;
69310;SDS011;56430;48.154;16.458;2023-07-29T10:57:13;2.60;;;2.20;;
69310;SDS011;56430;48.154;16.458;2023-07-29T10:59:41;2.90;;;2.42;;
69310;SDS011;56430;48.154;16.458;2023-07-29T11:02:17;2.58;;;2.08;;
69310;SDS011;56430;48.154;16.458;2023-07-29T11:04:47;3.10;;;2.80;;
69310;SDS011;56430;48.154;16.458;2023-07-29T11:07:21;2.95;;;2.65;;
69310;SDS011;56430;48.154;16.458;2023-07-29T11:09:57;2.85;;;2.55;;
69310;SDS011;56430;48.154;16.458;2023-07-29T11:12:33;2.92;;;2.60;;
69310;SDS011;56430;48.154;16.458;2023-07-29T11:15:01;3.13;;;2.37;;
69310;SDS011;56430;48.154;16.458;2023-07-29T11:17:30;2.63;;;2.40;;
69310;SDS011;56430;48.154;16.458;2023-07-29T11:19:59;2.58;;;2.13;;
69310;SDS011;56430;48.154;16.458;2023-07-29T11:22:29;3.88;;;2.15;;
69310;SDS011;56430;48.154;16.458;2023-07-29T11:24:57;2.40;;;2.00;;
69310;SDS011;56430;48.154;16.458;2023-07-29T11:27:23;2.97;;;2.15;;
69310;SDS011;56430;48.154;16.458;2023-07-29T11:29:50;2.83;;;1.98;;
69310;SDS011;56430;48.154;16.458;2023-07-29T11:32:22;3.08;;;1.90;;
69310;SDS011;56430;48.154;16.458;2023-07-29T11:34:51;2.78;;;2.10;;
69310;SDS011;56430;48.154;16.458;2023-07-29T11:37:17;3.10;;;2.17;;
69310;SDS011;56430;48.154;16.458;2023-07-29T11:39:46;2.47;;;1.70;;
69310;SDS011;56430;48.154;16.458;2023-07-29T11:42:13;2.60;;;1.90;;
69310;SDS011;56430;48.154;16.458;2023-07-29T11:44:40;2.35;;;1.60;;
69310;SDS011;56430;48.154;16.458;2023-07-29T11:47:07;2.60;;;1.70;;
69310;SDS011;56430;48.154;16.458;2023-07-29T11:49:34;8.85;;;1.60;;
69310;SDS011;56430;48.154;16.458;2023-07-29T11:52:03;2.65;;;1.48;;
69310;SDS011;56430;48.154;16.458;2023-07-29T11:54:30;2.40;;;1.80;;
69310;SDS011;56430;48.154;16.458;2023-07-29T11:56:56;2.25;;;1.60;;
69310;SDS011;56430;48.154;16.458;2023-07-29T11:59:23;4.28;;;1.83;;
69310;SDS011;56430;48.154;16.458;2023-07-29T12:01:50;2.47;;;1.90;;
69310;SDS011;56430;48.154;16.458;2023-07-29T12:04:18;2.20;;;1.57;;
69310;SDS011;56430;48.154;16.458;2023-07-29T12:06:45;2.43;;;1.80;;
69310;SDS011;56430;48.154;16.458;2023-07-29T12:09:13;2.60;;;1.80;;
69310;SDS011;56430;48.154;16.458;2023-07-29T12:11:40;3.08;;;1.88;;
69310;SDS011;56430;48.154;16.458;2023-07-29T12:14:08;2.80;;;1.63;;
69310;SDS011;56430;48.154;16.458;2023-07-29T12:16:40;3.20;;;1.70;;
69310;SDS011;56430;48.154;16.458;2023-07-29T12:19:06;2.97;;;1.40;;
69310;SDS011;56430;48.154;16.458;2023-07-29T12:21:33;3.35;;;1.73;;
69310;SDS011;56430;48.154;16.458;2023-07-29T12:24:02;3.33;;;1.50;;
69310;SDS011;56430;48.154;16.458;2023-07-29T12:26:30;2.35;;;1.63;;
69310;SDS011;56430;48.154;16.458;2023-07-29T12:28:57;4.50;;;1.67;;
69310;SDS011;56430;48.154;16.458;2023-07-29T12:31:28;2.40;;;1.50;;
69310;SDS011;56430;48.154;16.458;2023-07-29T12:33:57;2.08;;;1.30;;
69310;SDS011;56430;48.154;16.458;2023-07-29T12:36:27;3.15;;;1.50;;
69310;SDS011;56430;48.154;16.458;2023-07-29T12:38:53;2.75;;;1.63;;
69310;SDS011;56430;48.154;16.458;2023-07-29T12:41:25;2.10;;;1.40;;
69310;SDS011;56430;48.154;16.458;2023-07-29T12:43:53;2.40;;;1.60;;
69310;SDS011;56430;48.154;16.458;2023-07-29T12:46:20;2.22;;;1.38;;
69310;SDS011;56430;48.154;16.458;2023-07-29T12:48:47;2.15;;;1.33;;
69310;SDS011;56430;48.154;16.458;2023-07-29T12:51:14;2.67;;;1.60;;
69310;SDS011;56430;48.154;16.458;2023-07-29T12:53:40;2.70;;;1.50;;
69310;SDS011;56430;48.154;16.458;2023-07-29T12:56:07;3.27;;;1.27;;
69310;SDS011;56430;48.154;16.458;2023-07-29T12:58:34;2.55;;;1.25;;
69310;SDS011;56430;48.154;16.458;2023-07-29T13:01:02;4.07;;;1.02;;
69310;SDS011;56430;48.154;16.458;2023-07-29T13:03:29;2.30;;;1.13;;
69310;SDS011;56430;48.154;16.458;2023-07-29T13:05:56;2.45;;;1.45;;
69310;SDS011;56430;48.154;16.458;2023-07-29T13:08:23;2.60;;;1.45;;
69310;SDS011;56430;48.154;16.458;2023-07-29T13:10:49;3.47;;;1.27;;
69310;SDS011;56430;48.154;16.458;2023-07-29T13:13:16;2.10;;;1.10;;
69310;SDS011;56430;48.154;16.458;2023-07-29T13:15:43;2.20;;;1.10;;
69310;SDS011;56430;48.154;16.458;2023-07-29T13:18:11;2.30;;;1.03;;
69310;SDS011;56430;48.154;16.458;2023-07-29T13:20:38;2.03;;;1.20;;
69310;SDS011;56430;48.154;16.458;2023-07-29T13:23:05;2.25;;;1.23;;
69310;SDS011;56430;48.154;16.458;2023-07-29T13:25:32;1.75;;;1.02;;
69310;SDS011;56430;48.154;16.458;2023-07-29T13:27:59;2.17;;;0.95;;
69310;SDS011;56430;48.154;16.458;2023-07-29T13:30:25;1.73;;;1.00;;
69310;SDS011;56430;48.154;16.458;2023-07-29T13:32:52;1.98;;;0.90;;
69310;SDS011;56430;48.154;16.458;2023-07-29T13:35:21;1.92;;;1.00;;
69310;SDS011;56430;48.154;16.458;2023-07-29T13:37:48;1.80;;;0.90;;
69310;SDS011;56430;48.154;16.458;2023-07-29T13:40:15;2.33;;;1.00;;
69310;SDS011;56430;48.154;16.458;2023-07-29T13:42:41;1.90;;;0.90;;
69310;SDS011;56430;48.154;16.458;2023-07-29T13:45:08;2.03;;;0.80;;
69310;SDS011;56430;48.154;16.458;2023-07-29T13:47:36;2.13;;;1.02;;
69310;SDS011;56430;48.154;16.458;2023-07-29T13:50:03;1.95;;;0.90;;
69310;SDS011;56430;48.154;16.458;2023-07-29T13:52:32;2.10;;;1.10;;
69310;SDS011;56430;48.154;16.458;2023-07-29T13:54:58;2.15;;;1.05;;
69310;SDS011;56430;48.154;16.458;2023-07-29T13:57:25;1.80;;;0.80;;
69310;SDS011;56430;48.154;16.458;2023-07-29T13:59:52;2.28;;;1.00;;
69310;SDS011;56430;48.154;16.458;2023-07-29T14:02:19;2.15;;;1.08;;
69310;SDS011;56430;48.154;16.458;2023-07-29T14:04:46;2.08;;;1.10;;
69310;SDS011;56430;48.154;16.458;2023-07-29T14:07:12;2.00;;;0.80;;
69310;SDS011;56430;48.154;16.458;2023-07-29T14:09:41;2.43;;;1.20;;
69310;SDS011;56430;48.154;16.458;2023-07-29T14:12:08;2.30;;;1.15;;
69310;SDS011;56430;48.154;16.458;2023-07-29T14:14:37;3.47;;;1.10;;
69310;SDS011;56430;48.154;16.458;2023-07-29T14:17:04;1.92;;;0.80;;
69310;SDS011;56430;48.154;16.458;2023-07-29T14:19:31;2.33;;;0.90;;
69310;SDS011;56430;48.154;16.458;2023-07-29T14:21:58;2.10;;;0.90;;
69310;SDS011;56430;48.154;16.458;2023-07-29T14:24:25;3.20;;;1.05;;
69310;SDS011;56430;48.154;16.458;2023-07-29T14:26:53;3.72;;;1.30;;
69310;SDS011;56430;48.154;16.458;2023-07-29T14:29:20;2.88;;;1.10;;
69310;SDS011;56430;48.154;16.458;2023-07-29T14:31:47;2.27;;;1.07;;
69310;SDS011;56430;48.154;16.458;2023-07-29T14:34:14;2.10;;;0.90;;
69310;SDS011;56430;48.154;16.458;2023-07-29T14:36:41;2.03;;;0.95;;
69310;SDS011;56430;48.154;16.458;2023-07-29T14:39:08;2.78;;;1.20;;
69310;SDS011;56430;48.154;16.458;2023-07-29T14:41:34;2.72;;;1.15;;